sensor_id;sensor_type;location;lat;lon;timestamp;P1;durP1;ratioP1;P2;durP2;ratioP2
14373;SDS011;7270;49.004;12.066;2023-05-29T00:00:10;1.30;;;1.20;;
14373;SDS011;7270;49.004;12.066;2023-05-29T00:02:38;1.00;;;1.00;;
14373;SDS011;7270;49.004;12.066;2023-05-29T00:05:05;1.30;;;1.20;;
14373;SDS011;7270;49.004;12.066;2023-05-29T00:07:31;1.40;;;1.30;;
14373;SDS011;7270;49.004;12.066;2023-05-29T00:09:58;1.20;;;1.20;;
14373;SDS011;7270;49.004;12.066;2023-05-29T00:12:24;1.30;;;1.20;;
14373;SDS011;7270;49.004;12.066;2023-05-29T00:14:52;1.20;;;1.20;;
14373;SDS011;7270;49.004;12.066;2023-05-29T00:17:18;1.20;;;1.20;;
14373;SDS011;7270;49.004;12.066;2023-05-29T00:19:45;1.33;;;1.23;;
14373;SDS011;7270;49.004;12.066;2023-05-29T00:22:12;1.40;;;1.30;;
14373;SDS011;7270;49.004;12.066;2023-05-29T00:24:38;1.20;;;1.20;;
14373;SDS011;7270;49.004;12.066;2023-05-29T00:27:04;1.20;;;1.20;;
14373;SDS011;7270;49.004;12.066;2023-05-29T00:29:31;1.20;;;1.20;;
14373;SDS011;7270;49.004;12.066;2023-05-29T00:31:59;1.40;;;1.30;;
14373;SDS011;7270;49.004;12.066;2023-05-29T00:34:25;1.10;;;1.10;;
14373;SDS011;7270;49.004;12.066;2023-05-29T00:36:51;1.40;;;1.30;;
14373;SDS011;7270;49.004;12.066;2023-05-29T00:39:19;1.40;;;1.30;;
14373;SDS011;7270;49.004;12.066;2023-05-29T00:41:46;1.20;;;1.20;;
14373;SDS011;7270;49.004;12.066;2023-05-29T00:44:15;1.27;;;1.20;;
14373;SDS011;7270;49.004;12.066;2023-05-29T00:46:42;1.10;;;1.10;;
14373;SDS011;7270;49.004;12.066;2023-05-29T00:49:09;1.40;;;1.30;;
14373;SDS011;7270;49.004;12.066;2023-05-29T00:51:36;1.20;;;1.20;;
14373;SDS011;7270;49.004;12.066;2023-05-29T00:54:03;1.20;;;1.20;;
14373;SDS011;7270;49.004;12.066;2023-05-29T00:56:30;1.40;;;1.30;;
14373;SDS011;7270;49.004;12.066;2023-05-29T00:58:56;1.30;;;1.20;;
14373;SDS011;7270;49.004;12.066;2023-05-29T01:01:23;1.10;;;1.10;;
14373;SDS011;7270;49.004;12.066;2023-05-29T01:03:49;1.20;;;1.20;;
14373;SDS011;7270;49.004;12.066;2023-05-29T01:06:19;1.30;;;1.20;;
14373;SDS011;7270;49.004;12.066;2023-05-29T01:08:49;1.10;;;1.10;;
14373;SDS011;7270;49.004;12.066;2023-05-29T01:11:18;1.40;;;1.30;;
14373;SDS011;7270;49.004;12.066;2023-05-29T01:13:46;1.17;;;1.17;;
14373;SDS011;7270;49.004;12.066;2023-05-29T01:16:16;1.30;;;1.20;;
14373;SDS011;7270;49.004;12.066;2023-05-29T01:18:46;1.20;;;1.20;;
14373;SDS011;7270;49.004;12.066;2023-05-29T01:21:14;1.20;;;1.20;;
14373;SDS011;7270;49.004;12.066;2023-05-29T01:23:52;1.30;;;1.20;;
14373;SDS011;7270;49.004;12.066;2023-05-29T01:26:29;1.20;;;1.20;;
14373;SDS011;7270;49.004;12.066;2023-05-29T01:28:57;1.30;;;1.20;;
14373;SDS011;7270;49.004;12.066;2023-05-29T01:31:25;1.20;;;1.20;;
14373;SDS011;7270;49.004;12.066;2023-05-29T01:33:52;1.20;;;1.20;;
14373;SDS011;7270;49.004;12.066;2023-05-29T01:36:18;1.10;;;1.10;;
14373;SDS011;7270;49.004;12.066;2023-05-29T01:38:45;1.30;;;1.20;;
14373;SDS011;7270;49.004;12.066;2023-05-29T01:41:11;1.20;;;1.20;;
14373;SDS011;7270;49.004;12.066;2023-05-29T01:43:39;1.20;;;1.20;;
14373;SDS011;7270;49.004;12.066;2023-05-29T01:46:05;1.20;;;1.20;;
14373;SDS011;7270;49.004;12.066;2023-05-29T01:48:32;1.10;;;1.10;;
14373;SDS011;7270;49.004;12.066;2023-05-29T01:50:58;1.30;;;1.20;;
14373;SDS011;7270;49.004;12.066;2023-05-29T01:53:25;1.20;;;1.20;;
14373;SDS011;7270;49.004;12.066;2023-05-29T01:55:51;1.17;;;1.17;;
14373;SDS011;7270;49.004;12.066;2023-05-29T01:58:17;1.20;;;1.20;;
14373;SDS011;7270;49.004;12.066;2023-05-29T02:00:46;1.20;;;1.20;;
14373;SDS011;7270;49.004;12.066;2023-05-29T02:03:13;1.10;;;1.10;;
14373;SDS011;7270;49.004;12.066;2023-05-29T02:05:40;1.40;;;1.30;;
14373;SDS011;7270;49.004;12.066;2023-05-29T02:08:06;1.20;;;1.20;;
14373;SDS011;7270;49.004;12.066;2023-05-29T02:10:32;1.40;;;1.30;;
14373;SDS011;7270;49.004;12.066;2023-05-29T02:12:59;1.20;;;1.20;;
14373;SDS011;7270;49.004;12.066;2023-05-29T02:15:25;1.00;;;1.00;;
14373;SDS011;7270;49.004;12.066;2023-05-29T02:17:53;1.30;;;1.20;;
14373;SDS011;7270;49.004;12.066;2023-05-29T02:20:19;1.10;;;1.10;;
14373;SDS011;7270;49.004;12.066;2023-05-29T02:22:45;1.20;;;1.20;;
14373;SDS011;7270;49.004;12.066;2023-05-29T02:25:12;1.20;;;1.20;;
14373;SDS011;7270;49.004;12.066;2023-05-29T02:27:38;1.33;;;1.23;;
14373;SDS011;7270;49.004;12.066;2023-05-29T02:30:05;1.30;;;1.20;;
14373;SDS011;7270;49.004;12.066;2023-05-29T02:32:32;1.30;;;1.20;;
14373;SDS011;7270;49.004;12.066;2023-05-29T02:34:59;1.40;;;1.30;;
14373;SDS011;7270;49.004;12.066;2023-05-29T02:37:26;1.37;;;1.27;;
14373;SDS011;7270;49.004;12.066;2023-05-29T02:39:53;1.40;;;1.30;;
14373;SDS011;7270;49.004;12.066;2023-05-29T02:42:19;1.03;;;1.03;;
14373;SDS011;7270;49.004;12.066;2023-05-29T02:44:45;1.10;;;1.10;;
14373;SDS011;7270;49.004;12.066;2023-05-29T02:47:12;1.33;;;1.23;;
14373;SDS011;7270;49.004;12.066;2023-05-29T02:49:38;1.30;;;1.20;;
14373;SDS011;7270;49.004;12.066;2023-05-29T02:52:06;1.40;;;1.30;;
14373;SDS011;7270;49.004;12.066;2023-05-29T02:54:32;1.20;;;1.20;;
14373;SDS011;7270;49.004;12.066;2023-05-29T02:56:59;1.30;;;1.20;;
14373;SDS011;7270;49.004;12.066;2023-05-29T02:59:25;1.30;;;1.20;;
14373;SDS011;7270;49.004;12.066;2023-05-29T03:01:51;1.10;;;1.10;;
14373;SDS011;7270;49.004;12.066;2023-05-29T03:04:17;1.10;;;1.10;;
14373;SDS011;7270;49.004;12.066;2023-05-29T03:06:44;1.20;;;1.20;;
14373;SDS011;7270;49.004;12.066;2023-05-29T03:09:11;1.20;;;1.20;;
14373;SDS011;7270;49.004;12.066;2023-05-29T03:11:38;1.30;;;1.20;;
14373;SDS011;7270;49.004;12.066;2023-05-29T03:14:05;1.20;;;1.20;;
14373;SDS011;7270;49.004;12.066;2023-05-29T03:16:32;1.20;;;1.20;;
14373;SDS011;7270;49.004;12.066;2023-05-29T03:18:58;1.20;;;1.20;;
14373;SDS011;7270;49.004;12.066;2023-05-29T03:21:25;1.30;;;1.20;;
14373;SDS011;7270;49.004;12.066;2023-05-29T03:23:51;1.23;;;1.20;;
14373;SDS011;7270;49.004;12.066;2023-05-29T03:26:19;1.30;;;1.20;;
14373;SDS011;7270;49.004;12.066;2023-05-29T03:28:46;1.40;;;1.30;;
14373;SDS011;7270;49.004;12.066;2023-05-29T03:31:12;1.23;;;1.20;;
14373;SDS011;7270;49.004;12.066;2023-05-29T03:33:39;1.20;;;1.20;;
14373;SDS011;7270;49.004;12.066;2023-05-29T03:36:05;1.30;;;1.20;;
14373;SDS011;7270;49.004;12.066;2023-05-29T03:38:32;1.20;;;1.20;;
14373;SDS011;7270;49.004;12.066;2023-05-29T03:40:59;1.40;;;1.30;;
14373;SDS011;7270;49.004;12.066;2023-05-29T03:43:26;1.27;;;1.20;;
14373;SDS011;7270;49.004;12.066;2023-05-29T03:45:53;1.03;;;1.03;;
14373;SDS011;7270;49.004;12.066;2023-05-29T03:48:19;1.30;;;1.20;;
14373;SDS011;7270;49.004;12.066;2023-05-29T03:50:45;1.20;;;1.20;;
14373;SDS011;7270;49.004;12.066;2023-05-29T03:53:12;1.40;;;1.30;;
14373;SDS011;7270;49.004;12.066;2023-05-29T03:55:38;1.20;;;1.20;;
14373;SDS011;7270;49.004;12.066;2023-05-29T03:58:05;1.40;;;1.30;;
14373;SDS011;7270;49.004;12.066;2023-05-29T04:00:32;1.20;;;1.20;;
14373;SDS011;7270;49.004;12.066;2023-05-29T04:03:01;1.30;;;1.20;;
14373;SDS011;7270;49.004;12.066;2023-05-29T04:05:28;1.20;;;1.20;;
14373;SDS011;7270;49.004;12.066;2023-05-29T04:07:55;1.10;;;1.10;;
14373;SDS011;7270;49.004;12.066;2023-05-29T04:10:21;1.30;;;1.20;;
14373;SDS011;7270;49.004;12.066;2023-05-29T04:12:48;1.20;;;1.20;;
14373;SDS011;7270;49.004;12.066;2023-05-29T04:15:15;1.40;;;1.30;;
14373;SDS011;7270;49.004;12.066;2023-05-29T04:17:42;1.20;;;1.20;;
14373;SDS011;7270;49.004;12.066;2023-05-29T04:20:09;1.40;;;1.30;;
14373;SDS011;7270;49.004;12.066;2023-05-29T04:22:35;1.30;;;1.20;;
14373;SDS011;7270;49.004;12.066;2023-05-29T04:25:02;1.40;;;1.30;;
14373;SDS011;7270;49.004;12.066;2023-05-29T04:27:29;1.30;;;1.20;;
14373;SDS011;7270;49.004;12.066;2023-05-29T04:29:57;1.40;;;1.30;;
14373;SDS011;7270;49.004;12.066;2023-05-29T04:32:23;1.40;;;1.30;;
14373;SDS011;7270;49.004;12.066;2023-05-29T04:34:51;1.40;;;1.30;;
14373;SDS011;7270;49.004;12.066;2023-05-29T04:37:17;1.20;;;1.20;;
14373;SDS011;7270;49.004;12.066;2023-05-29T04:39:43;1.10;;;1.10;;
14373;SDS011;7270;49.004;12.066;2023-05-29T04:42:10;1.50;;;1.40;;
14373;SDS011;7270;49.004;12.066;2023-05-29T04:44:37;1.47;;;1.37;;
14373;SDS011;7270;49.004;12.066;2023-05-29T04:47:03;1.40;;;1.30;;
14373;SDS011;7270;49.004;12.066;2023-05-29T04:49:31;1.23;;;1.20;;
14373;SDS011;7270;49.004;12.066;2023-05-29T04:51:59;1.23;;;1.20;;
14373;SDS011;7270;49.004;12.066;2023-05-29T04:54:27;1.40;;;1.30;;
14373;SDS011;7270;49.004;12.066;2023-05-29T04:56:54;1.50;;;1.40;;
14373;SDS011;7270;49.004;12.066;2023-05-29T04:59:20;1.20;;;1.20;;
14373;SDS011;7270;49.004;12.066;2023-05-29T05:01:46;1.30;;;1.20;;
14373;SDS011;7270;49.004;12.066;2023-05-29T05:04:14;1.40;;;1.30;;
14373;SDS011;7270;49.004;12.066;2023-05-29T05:06:40;1.40;;;1.30;;
14373;SDS011;7270;49.004;12.066;2023-05-29T05:09:10;1.20;;;1.20;;
14373;SDS011;7270;49.004;12.066;2023-05-29T05:11:37;1.10;;;1.10;;
14373;SDS011;7270;49.004;12.066;2023-05-29T05:14:03;1.40;;;1.30;;
14373;SDS011;7270;49.004;12.066;2023-05-29T05:16:30;1.40;;;1.30;;
14373;SDS011;7270;49.004;12.066;2023-05-29T05:18:58;1.10;;;1.10;;
14373;SDS011;7270;49.004;12.066;2023-05-29T05:21:24;1.27;;;1.20;;
14373;SDS011;7270;49.004;12.066;2023-05-29T05:23:50;1.10;;;1.10;;
14373;SDS011;7270;49.004;12.066;2023-05-29T05:26:18;0.90;;;0.90;;
14373;SDS011;7270;49.004;12.066;2023-05-29T05:28:45;1.10;;;1.10;;
14373;SDS011;7270;49.004;12.066;2023-05-29T05:31:11;1.00;;;1.00;;
14373;SDS011;7270;49.004;12.066;2023-05-29T05:33:37;1.10;;;1.10;;
14373;SDS011;7270;49.004;12.066;2023-05-29T05:36:04;1.10;;;1.10;;
14373;SDS011;7270;49.004;12.066;2023-05-29T05:38:31;1.13;;;1.10;;
14373;SDS011;7270;49.004;12.066;2023-05-29T05:40:58;1.10;;;1.10;;
14373;SDS011;7270;49.004;12.066;2023-05-29T05:43:25;1.40;;;1.30;;
14373;SDS011;7270;49.004;12.066;2023-05-29T05:45:54;1.37;;;1.27;;
14373;SDS011;7270;49.004;12.066;2023-05-29T05:48:21;1.40;;;1.30;;
14373;SDS011;7270;49.004;12.066;2023-05-29T05:50:47;1.40;;;1.30;;
14373;SDS011;7270;49.004;12.066;2023-05-29T05:53:13;1.40;;;1.30;;
14373;SDS011;7270;49.004;12.066;2023-05-29T05:55:41;1.30;;;1.20;;
14373;SDS011;7270;49.004;12.066;2023-05-29T05:58:08;1.30;;;1.20;;
14373;SDS011;7270;49.004;12.066;2023-05-29T06:00:35;1.10;;;1.10;;
14373;SDS011;7270;49.004;12.066;2023-05-29T06:03:02;1.40;;;1.30;;
14373;SDS011;7270;49.004;12.066;2023-05-29T06:05:28;1.27;;;1.20;;
14373;SDS011;7270;49.004;12.066;2023-05-29T06:07:55;1.10;;;1.10;;
14373;SDS011;7270;49.004;12.066;2023-05-29T06:10:21;1.20;;;1.20;;
14373;SDS011;7270;49.004;12.066;2023-05-29T06:12:47;1.27;;;1.20;;
14373;SDS011;7270;49.004;12.066;2023-05-29T06:15:14;1.27;;;1.20;;
14373;SDS011;7270;49.004;12.066;2023-05-29T06:17:41;1.40;;;1.30;;
14373;SDS011;7270;49.004;12.066;2023-05-29T06:20:08;1.50;;;1.40;;
14373;SDS011;7270;49.004;12.066;2023-05-29T06:22:35;1.40;;;1.30;;
14373;SDS011;7270;49.004;12.066;2023-05-29T06:25:01;1.40;;;1.30;;
14373;SDS011;7270;49.004;12.066;2023-05-29T06:27:28;1.40;;;1.30;;
14373;SDS011;7270;49.004;12.066;2023-05-29T06:29:55;1.50;;;1.40;;
14373;SDS011;7270;49.004;12.066;2023-05-29T06:32:21;1.60;;;1.50;;
14373;SDS011;7270;49.004;12.066;2023-05-29T06:34:49;1.40;;;1.30;;
14373;SDS011;7270;49.004;12.066;2023-05-29T06:37:15;1.50;;;1.40;;
14373;SDS011;7270;49.004;12.066;2023-05-29T06:39:43;1.40;;;1.30;;
14373;SDS011;7270;49.004;12.066;2023-05-29T06:42:10;1.40;;;1.30;;
14373;SDS011;7270;49.004;12.066;2023-05-29T06:44:36;1.30;;;1.20;;
14373;SDS011;7270;49.004;12.066;2023-05-29T06:47:02;1.40;;;1.30;;
14373;SDS011;7270;49.004;12.066;2023-05-29T06:49:29;1.10;;;1.10;;
14373;SDS011;7270;49.004;12.066;2023-05-29T06:51:56;1.50;;;1.40;;
14373;SDS011;7270;49.004;12.066;2023-05-29T06:54:23;1.50;;;1.40;;
14373;SDS011;7270;49.004;12.066;2023-05-29T06:56:49;1.50;;;1.40;;
14373;SDS011;7270;49.004;12.066;2023-05-29T06:59:15;1.60;;;1.50;;
14373;SDS011;7270;49.004;12.066;2023-05-29T07:01:42;1.40;;;1.30;;
14373;SDS011;7270;49.004;12.066;2023-05-29T07:04:08;1.30;;;1.20;;
14373;SDS011;7270;49.004;12.066;2023-05-29T07:06:35;1.50;;;1.40;;
14373;SDS011;7270;49.004;12.066;2023-05-29T07:09:03;1.40;;;1.30;;
14373;SDS011;7270;49.004;12.066;2023-05-29T07:11:29;1.27;;;1.23;;
14373;SDS011;7270;49.004;12.066;2023-05-29T07:13:56;1.40;;;1.30;;
14373;SDS011;7270;49.004;12.066;2023-05-29T07:16:22;1.40;;;1.30;;
14373;SDS011;7270;49.004;12.066;2023-05-29T07:18:48;1.40;;;1.30;;
14373;SDS011;7270;49.004;12.066;2023-05-29T07:21:16;1.40;;;1.30;;
14373;SDS011;7270;49.004;12.066;2023-05-29T07:23:42;1.50;;;1.40;;
14373;SDS011;7270;49.004;12.066;2023-05-29T07:26:10;1.47;;;1.37;;
14373;SDS011;7270;49.004;12.066;2023-05-29T07:28:37;1.60;;;1.50;;
14373;SDS011;7270;49.004;12.066;2023-05-29T07:31:03;4.60;;;4.30;;
14373;SDS011;7270;49.004;12.066;2023-05-29T07:33:29;4.27;;;4.07;;
14373;SDS011;7270;49.004;12.066;2023-05-29T07:35:56;4.10;;;3.90;;
14373;SDS011;7270;49.004;12.066;2023-05-29T07:38:22;1.93;;;1.83;;
14373;SDS011;7270;49.004;12.066;2023-05-29T07:40:48;1.87;;;1.77;;
14373;SDS011;7270;49.004;12.066;2023-05-29T07:43:16;2.90;;;2.80;;
14373;SDS011;7270;49.004;12.066;2023-05-29T07:45:43;3.17;;;3.07;;
14373;SDS011;7270;49.004;12.066;2023-05-29T07:48:09;2.60;;;2.50;;
14373;SDS011;7270;49.004;12.066;2023-05-29T07:50:36;3.27;;;3.07;;
14373;SDS011;7270;49.004;12.066;2023-05-29T07:53:02;9.93;;;9.23;;
14373;SDS011;7270;49.004;12.066;2023-05-29T07:55:29;2.90;;;2.80;;
14373;SDS011;7270;49.004;12.066;2023-05-29T07:57:55;3.07;;;2.97;;
14373;SDS011;7270;49.004;12.066;2023-05-29T08:00:23;3.20;;;3.10;;
14373;SDS011;7270;49.004;12.066;2023-05-29T08:02:49;3.20;;;3.10;;
14373;SDS011;7270;49.004;12.066;2023-05-29T08:05:16;3.97;;;3.77;;
14373;SDS011;7270;49.004;12.066;2023-05-29T08:07:42;12.97;;;12.33;;
14373;SDS011;7270;49.004;12.066;2023-05-29T08:10:09;4.20;;;4.00;;
14373;SDS011;7270;49.004;12.066;2023-05-29T08:12:36;4.70;;;4.50;;
14373;SDS011;7270;49.004;12.066;2023-05-29T08:15:02;9.87;;;9.37;;
14373;SDS011;7270;49.004;12.066;2023-05-29T08:17:30;16.38;;;15.57;;
14373;SDS011;7270;49.004;12.066;2023-05-29T08:19:56;6.87;;;6.57;;
14373;SDS011;7270;49.004;12.066;2023-05-29T08:22:27;9.25;;;8.82;;
14373;SDS011;7270;49.004;12.066;2023-05-29T08:24:54;20.25;;;19.30;;
14373;SDS011;7270;49.004;12.066;2023-05-29T08:27:20;31.27;;;29.63;;
14373;SDS011;7270;49.004;12.066;2023-05-29T08:29:47;17.73;;;16.52;;
14373;SDS011;7270;49.004;12.066;2023-05-29T08:32:13;6.30;;;6.00;;
14373;SDS011;7270;49.004;12.066;2023-05-29T08:34:41;5.82;;;5.53;;
14373;SDS011;7270;49.004;12.066;2023-05-29T08:37:10;7.78;;;7.43;;
14373;SDS011;7270;49.004;12.066;2023-05-29T08:39:37;9.00;;;8.60;;
14373;SDS011;7270;49.004;12.066;2023-05-29T08:42:04;10.93;;;10.38;;
14373;SDS011;7270;49.004;12.066;2023-05-29T08:44:32;13.32;;;12.73;;
14373;SDS011;7270;49.004;12.066;2023-05-29T08:47:00;35.33;;;33.13;;
14373;SDS011;7270;49.004;12.066;2023-05-29T08:49:27;12.77;;;12.07;;
14373;SDS011;7270;49.004;12.066;2023-05-29T08:51:57;6.55;;;6.25;;
14373;SDS011;7270;49.004;12.066;2023-05-29T08:54:26;7.05;;;6.75;;
14373;SDS011;7270;49.004;12.066;2023-05-29T08:56:52;14.57;;;13.88;;
14373;SDS011;7270;49.004;12.066;2023-05-29T08:59:18;21.98;;;20.95;;
14373;SDS011;7270;49.004;12.066;2023-05-29T09:01:45;30.27;;;28.88;;
14373;SDS011;7270;49.004;12.066;2023-05-29T09:04:12;48.80;;;46.45;;
14373;SDS011;7270;49.004;12.066;2023-05-29T09:06:38;159.38;;;151.63;;
14373;SDS011;7270;49.004;12.066;2023-05-29T09:09:07;98.50;;;93.78;;
14373;SDS011;7270;49.004;12.066;2023-05-29T09:11:34;85.60;;;81.78;;
14373;SDS011;7270;49.004;12.066;2023-05-29T09:14:01;131.88;;;125.80;;
14373;SDS011;7270;49.004;12.066;2023-05-29T09:16:28;49.28;;;47.00;;
14373;SDS011;7270;49.004;12.066;2023-05-29T09:19:01;60.80;;;57.35;;
14373;SDS011;7270;49.004;12.066;2023-05-29T09:21:30;141.45;;;135.07;;
14373;SDS011;7270;49.004;12.066;2023-05-29T09:24:02;346.25;;;326.65;;
14373;SDS011;7270;49.004;12.066;2023-05-29T09:26:30;35.03;;;32.90;;
14373;SDS011;7270;49.004;12.066;2023-05-29T09:28:57;15.10;;;14.38;;
14373;SDS011;7270;49.004;12.066;2023-05-29T09:31:23;9.68;;;9.13;;
14373;SDS011;7270;49.004;12.066;2023-05-29T09:33:49;4.45;;;4.25;;
14373;SDS011;7270;49.004;12.066;2023-05-29T09:36:19;4.40;;;4.20;;
14373;SDS011;7270;49.004;12.066;2023-05-29T09:38:46;4.70;;;4.50;;
14373;SDS011;7270;49.004;12.066;2023-05-29T09:41:12;5.18;;;4.97;;
14373;SDS011;7270;49.004;12.066;2023-05-29T09:43:40;5.47;;;5.22;;
14373;SDS011;7270;49.004;12.066;2023-05-29T09:46:06;6.05;;;5.75;;
14373;SDS011;7270;49.004;12.066;2023-05-29T09:48:33;5.47;;;5.25;;
14373;SDS011;7270;49.004;12.066;2023-05-29T09:51:01;5.75;;;5.50;;
14373;SDS011;7270;49.004;12.066;2023-05-29T09:53:28;5.47;;;5.28;;
14373;SDS011;7270;49.004;12.066;2023-05-29T09:55:55;5.50;;;5.28;;
14373;SDS011;7270;49.004;12.066;2023-05-29T09:58:24;5.65;;;5.38;;
14373;SDS011;7270;49.004;12.066;2023-05-29T10:00:52;7.30;;;7.00;;
14373;SDS011;7270;49.004;12.066;2023-05-29T10:03:19;485.25;;;447.90;;
14373;SDS011;7270;49.004;12.066;2023-05-29T10:05:46;442.23;;;411.80;;
14373;SDS011;7270;49.004;12.066;2023-05-29T10:08:14;638.90;;;590.75;;
14373;SDS011;7270;49.004;12.066;2023-05-29T10:10:42;687.88;;;628.67;;
14373;SDS011;7270;49.004;12.066;2023-05-29T10:13:09;677.22;;;624.33;;
14373;SDS011;7270;49.004;12.066;2023-05-29T10:15:36;664.28;;;614.72;;
14373;SDS011;7270;49.004;12.066;2023-05-29T10:18:05;22.70;;;21.63;;
14373;SDS011;7270;49.004;12.066;2023-05-29T10:20:34;616.95;;;568.88;;
14373;SDS011;7270;49.004;12.066;2023-05-29T10:23:01;679.35;;;620.08;;
14373;SDS011;7270;49.004;12.066;2023-05-29T10:25:29;595.10;;;553.05;;
14373;SDS011;7270;49.004;12.066;2023-05-29T10:27:57;642.33;;;593.10;;
14373;SDS011;7270;49.004;12.066;2023-05-29T10:30:25;430.95;;;401.58;;
14373;SDS011;7270;49.004;12.066;2023-05-29T10:33:00;656.35;;;605.05;;
14373;SDS011;7270;49.004;12.066;2023-05-29T10:35:31;461.95;;;435.23;;
14373;SDS011;7270;49.004;12.066;2023-05-29T10:38:02;331.38;;;313.98;;
14373;SDS011;7270;49.004;12.066;2023-05-29T10:40:35;72.22;;;68.40;;
14373;SDS011;7270;49.004;12.066;2023-05-29T10:43:01;415.27;;;391.95;;
14373;SDS011;7270;49.004;12.066;2023-05-29T10:50:58;6.15;;;5.85;;
14373;SDS011;7270;49.004;12.066;2023-05-29T10:53:25;4.63;;;4.43;;
14373;SDS011;7270;49.004;12.066;2023-05-29T10:55:53;4.53;;;4.32;;
14373;SDS011;7270;49.004;12.066;2023-05-29T10:58:20;5.00;;;4.80;;
14373;SDS011;7270;49.004;12.066;2023-05-29T11:00:48;4.05;;;3.85;;
14373;SDS011;7270;49.004;12.066;2023-05-29T11:03:14;4.35;;;4.15;;
14373;SDS011;7270;49.004;12.066;2023-05-29T11:05:55;4.50;;;4.30;;
14373;SDS011;7270;49.004;12.066;2023-05-29T11:08:29;4.28;;;4.07;;
14373;SDS011;7270;49.004;12.066;2023-05-29T11:10:58;4.20;;;4.00;;
14373;SDS011;7270;49.004;12.066;2023-05-29T11:13:26;4.30;;;4.10;;
14373;SDS011;7270;49.004;12.066;2023-05-29T11:16:05;4.35;;;4.15;;
14373;SDS011;7270;49.004;12.066;2023-05-29T11:18:37;4.20;;;4.00;;
14373;SDS011;7270;49.004;12.066;2023-05-29T11:21:04;3.90;;;3.70;;
14373;SDS011;7270;49.004;12.066;2023-05-29T11:23:36;4.00;;;3.80;;
14373;SDS011;7270;49.004;12.066;2023-05-29T11:26:05;4.13;;;3.92;;
14373;SDS011;7270;49.004;12.066;2023-05-29T11:28:31;4.13;;;3.92;;
14373;SDS011;7270;49.004;12.066;2023-05-29T11:30:58;4.25;;;4.05;;
14373;SDS011;7270;49.004;12.066;2023-05-29T11:33:26;4.32;;;4.13;;
14373;SDS011;7270;49.004;12.066;2023-05-29T11:35:55;4.25;;;4.05;;
14373;SDS011;7270;49.004;12.066;2023-05-29T11:38:21;4.43;;;4.22;;
14373;SDS011;7270;49.004;12.066;2023-05-29T11:40:49;5.40;;;5.15;;
14373;SDS011;7270;49.004;12.066;2023-05-29T11:43:16;4.30;;;4.10;;
14373;SDS011;7270;49.004;12.066;2023-05-29T11:45:42;4.00;;;3.80;;
14373;SDS011;7270;49.004;12.066;2023-05-29T11:48:08;4.15;;;3.95;;
14373;SDS011;7270;49.004;12.066;2023-05-29T11:50:35;4.70;;;4.50;;
14373;SDS011;7270;49.004;12.066;2023-05-29T11:53:02;4.32;;;4.13;;
14373;SDS011;7270;49.004;12.066;2023-05-29T11:55:28;4.35;;;4.15;;
14373;SDS011;7270;49.004;12.066;2023-05-29T11:57:59;4.63;;;4.43;;
14373;SDS011;7270;49.004;12.066;2023-05-29T12:00:26;4.85;;;4.65;;
14373;SDS011;7270;49.004;12.066;2023-05-29T12:02:57;8.38;;;7.97;;
14373;SDS011;7270;49.004;12.066;2023-05-29T12:05:23;3.80;;;3.60;;
14373;SDS011;7270;49.004;12.066;2023-05-29T12:07:50;3.95;;;3.75;;
14373;SDS011;7270;49.004;12.066;2023-05-29T12:10:17;4.53;;;4.28;;
14373;SDS011;7270;49.004;12.066;2023-05-29T12:12:46;4.05;;;3.80;;
14373;SDS011;7270;49.004;12.066;2023-05-29T12:15:14;4.32;;;4.13;;
14373;SDS011;7270;49.004;12.066;2023-05-29T12:17:41;7.57;;;7.18;;
14373;SDS011;7270;49.004;12.066;2023-05-29T12:20:08;6.38;;;6.07;;
14373;SDS011;7270;49.004;12.066;2023-05-29T12:22:37;7.25;;;6.95;;
14373;SDS011;7270;49.004;12.066;2023-05-29T12:25:07;11.85;;;11.32;;
14373;SDS011;7270;49.004;12.066;2023-05-29T12:27:34;97.57;;;92.93;;
14373;SDS011;7270;49.004;12.066;2023-05-29T12:30:06;129.85;;;124.18;;
14373;SDS011;7270;49.004;12.066;2023-05-29T12:32:35;12.55;;;11.95;;
14373;SDS011;7270;49.004;12.066;2023-05-29T12:35:09;3.70;;;3.50;;
14373;SDS011;7270;49.004;12.066;2023-05-29T12:37:35;4.03;;;3.83;;
14373;SDS011;7270;49.004;12.066;2023-05-29T12:40:13;3.88;;;3.67;;
14373;SDS011;7270;49.004;12.066;2023-05-29T12:42:40;4.30;;;4.10;;
14373;SDS011;7270;49.004;12.066;2023-05-29T12:45:06;4.03;;;3.83;;
14373;SDS011;7270;49.004;12.066;2023-05-29T12:47:33;3.92;;;3.72;;
14373;SDS011;7270;49.004;12.066;2023-05-29T12:50:01;6.22;;;5.93;;
14373;SDS011;7270;49.004;12.066;2023-05-29T12:52:30;20.20;;;18.95;;
14373;SDS011;7270;49.004;12.066;2023-05-29T12:54:56;9.38;;;8.80;;
14373;SDS011;7270;49.004;12.066;2023-05-29T12:57:22;4.90;;;4.70;;
14373;SDS011;7270;49.004;12.066;2023-05-29T12:59:49;4.17;;;3.97;;
14373;SDS011;7270;49.004;12.066;2023-05-29T13:02:15;1.80;;;1.70;;
14373;SDS011;7270;49.004;12.066;2023-05-29T13:04:41;1.90;;;1.80;;
14373;SDS011;7270;49.004;12.066;2023-05-29T13:07:09;1.70;;;1.60;;
14373;SDS011;7270;49.004;12.066;2023-05-29T13:09:35;1.60;;;1.50;;
14373;SDS011;7270;49.004;12.066;2023-05-29T13:12:02;1.70;;;1.60;;
14373;SDS011;7270;49.004;12.066;2023-05-29T13:14:28;1.77;;;1.67;;
14373;SDS011;7270;49.004;12.066;2023-05-29T13:16:54;1.60;;;1.50;;
14373;SDS011;7270;49.004;12.066;2023-05-29T13:19:21;1.60;;;1.50;;
14373;SDS011;7270;49.004;12.066;2023-05-29T13:21:47;1.60;;;1.50;;
14373;SDS011;7270;49.004;12.066;2023-05-29T13:24:16;1.70;;;1.60;;
14373;SDS011;7270;49.004;12.066;2023-05-29T13:26:42;1.60;;;1.50;;
14373;SDS011;7270;49.004;12.066;2023-05-29T13:29:08;1.50;;;1.40;;
14373;SDS011;7270;49.004;12.066;2023-05-29T13:31:35;1.70;;;1.60;;
14373;SDS011;7270;49.004;12.066;2023-05-29T13:34:01;1.50;;;1.40;;
14373;SDS011;7270;49.004;12.066;2023-05-29T13:36:27;1.63;;;1.53;;
14373;SDS011;7270;49.004;12.066;2023-05-29T13:38:54;1.50;;;1.40;;
14373;SDS011;7270;49.004;12.066;2023-05-29T13:41:21;1.50;;;1.40;;
14373;SDS011;7270;49.004;12.066;2023-05-29T13:43:48;1.40;;;1.30;;
14373;SDS011;7270;49.004;12.066;2023-05-29T13:46:14;1.50;;;1.40;;
14373;SDS011;7270;49.004;12.066;2023-05-29T13:48:40;1.40;;;1.30;;
14373;SDS011;7270;49.004;12.066;2023-05-29T13:51:07;1.50;;;1.40;;
14373;SDS011;7270;49.004;12.066;2023-05-29T13:53:33;1.60;;;1.50;;
14373;SDS011;7270;49.004;12.066;2023-05-29T13:55:59;1.50;;;1.40;;
14373;SDS011;7270;49.004;12.066;2023-05-29T13:58:27;1.60;;;1.50;;
14373;SDS011;7270;49.004;12.066;2023-05-29T14:00:53;1.60;;;1.50;;
14373;SDS011;7270;49.004;12.066;2023-05-29T14:03:20;1.50;;;1.40;;
14373;SDS011;7270;49.004;12.066;2023-05-29T14:05:49;1.50;;;1.40;;
14373;SDS011;7270;49.004;12.066;2023-05-29T14:08:15;1.50;;;1.40;;
14373;SDS011;7270;49.004;12.066;2023-05-29T14:10:41;1.50;;;1.40;;
14373;SDS011;7270;49.004;12.066;2023-05-29T14:13:08;1.50;;;1.40;;
14373;SDS011;7270;49.004;12.066;2023-05-29T14:15:35;1.40;;;1.30;;
14373;SDS011;7270;49.004;12.066;2023-05-29T14:18:02;1.40;;;1.30;;
14373;SDS011;7270;49.004;12.066;2023-05-29T14:20:28;1.40;;;1.30;;
14373;SDS011;7270;49.004;12.066;2023-05-29T14:22:54;1.50;;;1.40;;
14373;SDS011;7270;49.004;12.066;2023-05-29T14:25:21;1.40;;;1.30;;
14373;SDS011;7270;49.004;12.066;2023-05-29T14:27:47;1.40;;;1.30;;
14373;SDS011;7270;49.004;12.066;2023-05-29T14:30:14;1.40;;;1.30;;
14373;SDS011;7270;49.004;12.066;2023-05-29T14:32:41;1.40;;;1.30;;
14373;SDS011;7270;49.004;12.066;2023-05-29T14:35:08;1.40;;;1.30;;
14373;SDS011;7270;49.004;12.066;2023-05-29T14:37:35;1.40;;;1.30;;
14373;SDS011;7270;49.004;12.066;2023-05-29T14:40:01;1.43;;;1.33;;
14373;SDS011;7270;49.004;12.066;2023-05-29T14:42:28;1.40;;;1.30;;
14373;SDS011;7270;49.004;12.066;2023-05-29T14:44:54;1.40;;;1.30;;
14373;SDS011;7270;49.004;12.066;2023-05-29T14:47:21;1.40;;;1.30;;